sensor_id;sensor_type;location;lat;lon;timestamp;temperature;humidity
19007;DHT22;9636;47.382;8.480;2023-10-08T00:01:38;20.30;94.10
19007;DHT22;9636;47.382;8.480;2023-10-08T00:04:09;20.30;94.10
19007;DHT22;9636;47.382;8.480;2023-10-08T00:06:37;20.30;94.20
19007;DHT22;9636;47.382;8.480;2023-10-08T00:09:04;20.30;94.20
19007;DHT22;9636;47.382;8.480;2023-10-08T00:11:37;20.30;94.20
19007;DHT22;9636;47.382;8.480;2023-10-08T00:14:05;20.20;94.20
19007;DHT22;9636;47.382;8.480;2023-10-08T00:16:35;20.20;94.20
19007;DHT22;9636;47.382;8.480;2023-10-08T00:19:04;20.20;94.20
19007;DHT22;9636;47.382;8.480;2023-10-08T00:21:35;20.10;94.20
19007;DHT22;9636;47.382;8.480;2023-10-08T00:24:04;20.10;94.20
19007;DHT22;9636;47.382;8.480;2023-10-08T00:26:33;20.10;94.20
19007;DHT22;9636;47.382;8.480;2023-10-08T00:29:02;20.10;94.30
19007;DHT22;9636;47.382;8.480;2023-10-08T00:31:32;20.00;94.20
19007;DHT22;9636;47.382;8.480;2023-10-08T00:34:03;20.00;94.20
19007;DHT22;9636;47.382;8.480;2023-10-08T00:36:31;20.00;94.30
19007;DHT22;9636;47.382;8.480;2023-10-08T00:39:03;20.00;94.30
19007;DHT22;9636;47.382;8.480;2023-10-08T00:41:34;20.00;94.30
19007;DHT22;9636;47.382;8.480;2023-10-08T00:44:00;19.90;94.30
19007;DHT22;9636;47.382;8.480;2023-10-08T00:46:31;19.90;94.30
19007;DHT22;9636;47.382;8.480;2023-10-08T00:49:02;19.90;94.30
19007;DHT22;9636;47.382;8.480;2023-10-08T00:51:50;19.90;94.30
19007;DHT22;9636;47.382;8.480;2023-10-08T00:54:27;19.80;94.30
19007;DHT22;9636;47.382;8.480;2023-10-08T00:56:59;19.80;94.40
19007;DHT22;9636;47.382;8.480;2023-10-08T00:59:31;19.80;94.40
19007;DHT22;9636;47.382;8.480;2023-10-08T01:02:10;19.80;94.40
19007;DHT22;9636;47.382;8.480;2023-10-08T01:04:40;19.70;94.40
19007;DHT22;9636;47.382;8.480;2023-10-08T01:07:10;19.70;94.40
19007;DHT22;9636;47.382;8.480;2023-10-08T01:09:43;19.70;94.40
19007;DHT22;9636;47.382;8.480;2023-10-08T01:12:17;19.70;94.40
19007;DHT22;9636;47.382;8.480;2023-10-08T01:14:47;19.70;94.40
19007;DHT22;9636;47.382;8.480;2023-10-08T01:17:16;19.60;94.40
19007;DHT22;9636;47.382;8.480;2023-10-08T01:19:45;19.60;94.40
19007;DHT22;9636;47.382;8.480;2023-10-08T01:22:17;19.60;94.40
19007;DHT22;9636;47.382;8.480;2023-10-08T01:24:46;19.60;94.50
19007;DHT22;9636;47.382;8.480;2023-10-08T01:27:14;19.50;94.40
19007;DHT22;9636;47.382;8.480;2023-10-08T01:29:47;19.50;94.40
19007;DHT22;9636;47.382;8.480;2023-10-08T01:32:15;19.60;94.50
19007;DHT22;9636;47.382;8.480;2023-10-08T01:34:42;19.50;94.50
19007;DHT22;9636;47.382;8.480;2023-10-08T01:37:11;19.50;94.50
19007;DHT22;9636;47.382;8.480;2023-10-08T01:39:39;19.50;94.50
19007;DHT22;9636;47.382;8.480;2023-10-08T01:42:08;19.50;94.50
19007;DHT22;9636;47.382;8.480;2023-10-08T01:44:41;19.40;94.50
19007;DHT22;9636;47.382;8.480;2023-10-08T01:47:10;19.40;94.50
19007;DHT22;9636;47.382;8.480;2023-10-08T01:49:38;19.40;94.50
19007;DHT22;9636;47.382;8.480;2023-10-08T01:52:05;19.40;94.50
19007;DHT22;9636;47.382;8.480;2023-10-08T01:54:40;19.40;94.50
19007;DHT22;9636;47.382;8.480;2023-10-08T01:57:07;19.40;94.50
19007;DHT22;9636;47.382;8.480;2023-10-08T01:59:35;19.30;94.50
19007;DHT22;9636;47.382;8.480;2023-10-08T02:02:03;19.30;94.90
19007;DHT22;9636;47.382;8.480;2023-10-08T02:04:31;19.30;94.60
19007;DHT22;9636;47.382;8.480;2023-10-08T02:07:01;19.20;94.60
19007;DHT22;9636;47.382;8.480;2023-10-08T02:09:29;19.20;94.60
19007;DHT22;9636;47.382;8.480;2023-10-08T02:11:57;19.20;94.60
19007;DHT22;9636;47.382;8.480;2023-10-08T02:14:24;19.20;94.60
19007;DHT22;9636;47.382;8.480;2023-10-08T02:16:51;19.20;94.60
19007;DHT22;9636;47.382;8.480;2023-10-08T02:19:21;19.10;94.60
19007;DHT22;9636;47.382;8.480;2023-10-08T02:21:52;19.20;94.60
19007;DHT22;9636;47.382;8.480;2023-10-08T02:24:20;19.10;94.60
19007;DHT22;9636;47.382;8.480;2023-10-08T02:26:50;19.10;94.60
19007;DHT22;9636;47.382;8.480;2023-10-08T02:29:18;19.10;94.60
19007;DHT22;9636;47.382;8.480;2023-10-08T02:31:45;19.10;94.60
19007;DHT22;9636;47.382;8.480;2023-10-08T02:34:13;19.00;94.60
19007;DHT22;9636;47.382;8.480;2023-10-08T02:36:40;19.00;94.60
19007;DHT22;9636;47.382;8.480;2023-10-08T02:39:07;19.00;94.60
19007;DHT22;9636;47.382;8.480;2023-10-08T02:41:39;19.00;94.60
19007;DHT22;9636;47.382;8.480;2023-10-08T02:44:08;19.00;94.60
19007;DHT22;9636;47.382;8.480;2023-10-08T02:46:39;18.90;94.60
19007;DHT22;9636;47.382;8.480;2023-10-08T02:49:07;18.90;94.60
19007;DHT22;9636;47.382;8.480;2023-10-08T02:51:36;18.90;94.60
19007;DHT22;9636;47.382;8.480;2023-10-08T02:54:04;18.90;94.60
19007;DHT22;9636;47.382;8.480;2023-10-08T02:56:31;18.90;94.70
19007;DHT22;9636;47.382;8.480;2023-10-08T02:58:58;18.90;94.60
19007;DHT22;9636;47.382;8.480;2023-10-08T03:01:28;18.80;94.70
19007;DHT22;9636;47.382;8.480;2023-10-08T03:04:00;18.80;94.70
19007;DHT22;9636;47.382;8.480;2023-10-08T03:06:29;18.80;94.70
19007;DHT22;9636;47.382;8.480;2023-10-08T03:08:57;18.80;94.70
19007;DHT22;9636;47.382;8.480;2023-10-08T03:11:29;18.80;94.70
19007;DHT22;9636;47.382;8.480;2023-10-08T03:13:56;18.70;94.70
19007;DHT22;9636;47.382;8.480;2023-10-08T03:16:24;18.70;94.70
19007;DHT22;9636;47.382;8.480;2023-10-08T03:18:54;18.70;94.70
19007;DHT22;9636;47.382;8.480;2023-10-08T03:21:24;18.70;94.70
19007;DHT22;9636;47.382;8.480;2023-10-08T03:24:14;18.70;94.80
19007;DHT22;9636;47.382;8.480;2023-10-08T03:26:55;18.60;94.70
19007;DHT22;9636;47.382;8.480;2023-10-08T03:29:32;18.70;94.80
19007;DHT22;9636;47.382;8.480;2023-10-08T03:31:59;18.60;94.80
19007;DHT22;9636;47.382;8.480;2023-10-08T03:34:31;18.60;94.70
19007;DHT22;9636;47.382;8.480;2023-10-08T03:37:01;18.60;94.80
19007;DHT22;9636;47.382;8.480;2023-10-08T03:39:32;18.50;94.70
19007;DHT22;9636;47.382;8.480;2023-10-08T03:42:19;18.50;94.80
19007;DHT22;9636;47.382;8.480;2023-10-08T03:44:48;18.50;94.80
19007;DHT22;9636;47.382;8.480;2023-10-08T03:47:17;18.50;94.80
19007;DHT22;9636;47.382;8.480;2023-10-08T03:49:48;18.50;94.80
19007;DHT22;9636;47.382;8.480;2023-10-08T03:52:17;18.50;94.80
19007;DHT22;9636;47.382;8.480;2023-10-08T03:54:48;18.50;94.80
19007;DHT22;9636;47.382;8.480;2023-10-08T03:57:16;18.40;94.80
19007;DHT22;9636;47.382;8.480;2023-10-08T03:59:50;18.40;94.80
19007;DHT22;9636;47.382;8.480;2023-10-08T04:02:24;18.40;94.80
19007;DHT22;9636;47.382;8.480;2023-10-08T04:05:05;18.40;94.80
19007;DHT22;9636;47.382;8.480;2023-10-08T04:07:46;18.40;94.80
19007;DHT22;9636;47.382;8.480;2023-10-08T04:10:27;18.40;94.80
19007;DHT22;9636;47.382;8.480;2023-10-08T04:13:33;18.40;94.80
19007;DHT22;9636;47.382;8.480;2023-10-08T04:16:04;18.30;94.90
19007;DHT22;9636;47.382;8.480;2023-10-08T04:18:32;18.30;94.80
19007;DHT22;9636;47.382;8.480;2023-10-08T04:21:06;18.30;94.80
19007;DHT22;9636;47.382;8.480;2023-10-08T04:23:39;18.20;94.80
19007;DHT22;9636;47.382;8.480;2023-10-08T04:26:10;18.20;94.80
19007;DHT22;9636;47.382;8.480;2023-10-08T04:28:38;18.20;94.80
19007;DHT22;9636;47.382;8.480;2023-10-08T04:31:06;18.20;94.90
19007;DHT22;9636;47.382;8.480;2023-10-08T04:33:42;18.20;94.90
19007;DHT22;9636;47.382;8.480;2023-10-08T04:36:10;18.20;94.90
19007;DHT22;9636;47.382;8.480;2023-10-08T04:38:40;18.20;94.90
19007;DHT22;9636;47.382;8.480;2023-10-08T04:41:08;18.10;94.90
19007;DHT22;9636;47.382;8.480;2023-10-08T04:43:35;18.10;94.90
19007;DHT22;9636;47.382;8.480;2023-10-08T04:46:05;18.10;94.90
19007;DHT22;9636;47.382;8.480;2023-10-08T04:48:44;18.10;94.90
19007;DHT22;9636;47.382;8.480;2023-10-08T04:51:11;18.10;94.90
19007;DHT22;9636;47.382;8.480;2023-10-08T04:53:40;18.10;94.90
19007;DHT22;9636;47.382;8.480;2023-10-08T04:56:10;18.00;94.90
19007;DHT22;9636;47.382;8.480;2023-10-08T04:58:43;18.00;94.90
19007;DHT22;9636;47.382;8.480;2023-10-08T05:01:12;18.00;94.90
19007;DHT22;9636;47.382;8.480;2023-10-08T05:03:47;18.00;95.00
19007;DHT22;9636;47.382;8.480;2023-10-08T05:06:33;18.00;94.90
19007;DHT22;9636;47.382;8.480;2023-10-08T05:09:17;18.00;94.90
19007;DHT22;9636;47.382;8.480;2023-10-08T05:11:49;17.90;94.90
19007;DHT22;9636;47.382;8.480;2023-10-08T05:14:34;17.90;94.90
19007;DHT22;9636;47.382;8.480;2023-10-08T05:17:06;17.90;94.90
19007;DHT22;9636;47.382;8.480;2023-10-08T05:19:35;17.90;94.90
19007;DHT22;9636;47.382;8.480;2023-10-08T05:22:19;17.80;94.90
19007;DHT22;9636;47.382;8.480;2023-10-08T05:25:10;17.90;94.90
19007;DHT22;9636;47.382;8.480;2023-10-08T05:28:00;17.80;94.90
19007;DHT22;9636;47.382;8.480;2023-10-08T05:30:35;17.80;94.90
19007;DHT22;9636;47.382;8.480;2023-10-08T05:33:08;17.80;94.90
19007;DHT22;9636;47.382;8.480;2023-10-08T05:35:51;17.80;94.90
19007;DHT22;9636;47.382;8.480;2023-10-08T05:38:28;17.80;94.90
19007;DHT22;9636;47.382;8.480;2023-10-08T05:41:14;17.80;95.00
19007;DHT22;9636;47.382;8.480;2023-10-08T05:43:56;17.70;94.90
19007;DHT22;9636;47.382;8.480;2023-10-08T05:46:37;17.80;95.00
19007;DHT22;9636;47.382;8.480;2023-10-08T05:49:14;17.70;94.90
19007;DHT22;9636;47.382;8.480;2023-10-08T05:52:04;17.70;94.90
19007;DHT22;9636;47.382;8.480;2023-10-08T05:54:48;17.70;94.90
19007;DHT22;9636;47.382;8.480;2023-10-08T05:57:41;17.70;94.90
19007;DHT22;9636;47.382;8.480;2023-10-08T06:00:13;17.70;94.90
19007;DHT22;9636;47.382;8.480;2023-10-08T06:02:57;17.70;94.90
19007;DHT22;9636;47.382;8.480;2023-10-08T06:05:37;17.70;94.80
19007;DHT22;9636;47.382;8.480;2023-10-08T06:08:11;17.70;94.80
19007;DHT22;9636;47.382;8.480;2023-10-08T06:10:40;17.70;94.80
19007;DHT22;9636;47.382;8.480;2023-10-08T06:13:14;17.80;94.90
19007;DHT22;9636;47.382;8.480;2023-10-08T06:15:46;17.80;94.80
19007;DHT22;9636;47.382;8.480;2023-10-08T06:18:18;17.80;94.80
19007;DHT22;9636;47.382;8.480;2023-10-08T06:20:44;17.90;98.80
19007;DHT22;9636;47.382;8.480;2023-10-08T06:23:12;18.10;99.90
19007;DHT22;9636;47.382;8.480;2023-10-08T06:25:43;18.20;99.90
19007;DHT22;9636;47.382;8.480;2023-10-08T06:28:16;18.40;99.90
19007;DHT22;9636;47.382;8.480;2023-10-08T06:30:45;18.50;99.90
19007;DHT22;9636;47.382;8.480;2023-10-08T06:33:12;18.60;99.60
19007;DHT22;9636;47.382;8.480;2023-10-08T06:35:39;18.60;99.40
19007;DHT22;9636;47.382;8.480;2023-10-08T06:38:10;18.80;99.20
19007;DHT22;9636;47.382;8.480;2023-10-08T06:40:40;18.90;98.90
19007;DHT22;9636;47.382;8.480;2023-10-08T06:43:09;19.00;98.90
19007;DHT22;9636;47.382;8.480;2023-10-08T06:45:44;19.10;98.60
19007;DHT22;9636;47.382;8.480;2023-10-08T06:48:13;19.10;98.50
19007;DHT22;9636;47.382;8.480;2023-10-08T06:50:46;19.20;98.30
19007;DHT22;9636;47.382;8.480;2023-10-08T06:53:13;19.30;98.10
19007;DHT22;9636;47.382;8.480;2023-10-08T06:55:41;19.40;97.90
19007;DHT22;9636;47.382;8.480;2023-10-08T06:58:09;19.50;97.70
19007;DHT22;9636;47.382;8.480;2023-10-08T07:00:37;19.60;97.50
19007;DHT22;9636;47.382;8.480;2023-10-08T07:03:07;19.70;97.30
19007;DHT22;9636;47.382;8.480;2023-10-08T07:05:36;19.90;97.10
19007;DHT22;9636;47.382;8.480;2023-10-08T07:08:07;20.00;96.90
19007;DHT22;9636;47.382;8.480;2023-10-08T07:10:35;20.10;96.70
19007;DHT22;9636;47.382;8.480;2023-10-08T07:13:02;20.30;96.50
19007;DHT22;9636;47.382;8.480;2023-10-08T07:15:30;20.40;96.30
19007;DHT22;9636;47.382;8.480;2023-10-08T07:17:57;20.60;96.50
19007;DHT22;9636;47.382;8.480;2023-10-08T07:20:35;20.70;95.90
19007;DHT22;9636;47.382;8.480;2023-10-08T07:23:05;20.80;95.70
19007;DHT22;9636;47.382;8.480;2023-10-08T07:25:37;21.00;95.60
19007;DHT22;9636;47.382;8.480;2023-10-08T07:28:04;21.20;95.30
19007;DHT22;9636;47.382;8.480;2023-10-08T07:30:37;21.30;95.20
19007;DHT22;9636;47.382;8.480;2023-10-08T07:33:05;20.00;92.60
19007;DHT22;9636;47.382;8.480;2023-10-08T07:35:38;19.40;94.30
19007;DHT22;9636;47.382;8.480;2023-10-08T07:38:06;19.00;94.60
19007;DHT22;9636;47.382;8.480;2023-10-08T07:40:35;18.90;95.10
19007;DHT22;9636;47.382;8.480;2023-10-08T07:43:03;18.80;95.80
19007;DHT22;9636;47.382;8.480;2023-10-08T07:45:34;18.90;95.50
19007;DHT22;9636;47.382;8.480;2023-10-08T07:48:01;18.90;95.50
19007;DHT22;9636;47.382;8.480;2023-10-08T07:50:27;18.90;95.50
19007;DHT22;9636;47.382;8.480;2023-10-08T07:52:56;18.90;95.50
19007;DHT22;9636;47.382;8.480;2023-10-08T07:55:23;18.90;95.30
19007;DHT22;9636;47.382;8.480;2023-10-08T07:57:49;19.00;95.20
19007;DHT22;9636;47.382;8.480;2023-10-08T08:00:18;19.10;95.40
19007;DHT22;9636;47.382;8.480;2023-10-08T08:02:48;19.10;95.10
19007;DHT22;9636;47.382;8.480;2023-10-08T08:05:16;19.00;94.30
19007;DHT22;9636;47.382;8.480;2023-10-08T08:07:43;19.00;94.40
19007;DHT22;9636;47.382;8.480;2023-10-08T08:10:12;19.00;94.30
19007;DHT22;9636;47.382;8.480;2023-10-08T08:12:39;19.20;94.70
19007;DHT22;9636;47.382;8.480;2023-10-08T08:15:07;19.40;95.00
19007;DHT22;9636;47.382;8.480;2023-10-08T08:17:41;19.60;94.40
19007;DHT22;9636;47.382;8.480;2023-10-08T08:20:08;19.50;94.70
19007;DHT22;9636;47.382;8.480;2023-10-08T08:22:44;19.60;94.00
19007;DHT22;9636;47.382;8.480;2023-10-08T08:25:17;19.60;94.20
19007;DHT22;9636;47.382;8.480;2023-10-08T08:27:52;19.60;93.30
19007;DHT22;9636;47.382;8.480;2023-10-08T08:30:19;19.70;93.50
19007;DHT22;9636;47.382;8.480;2023-10-08T08:32:51;19.70;93.20
19007;DHT22;9636;47.382;8.480;2023-10-08T08:35:20;19.70;93.10
19007;DHT22;9636;47.382;8.480;2023-10-08T08:37:47;19.80;93.90
19007;DHT22;9636;47.382;8.480;2023-10-08T08:40:19;19.90;93.60
19007;DHT22;9636;47.382;8.480;2023-10-08T08:42:48;20.00;93.50
19007;DHT22;9636;47.382;8.480;2023-10-08T08:45:18;20.20;93.30
19007;DHT22;9636;47.382;8.480;2023-10-08T08:47:46;20.30;93.30
19007;DHT22;9636;47.382;8.480;2023-10-08T08:50:13;20.40;92.50
19007;DHT22;9636;47.382;8.480;2023-10-08T08:52:40;20.30;93.50
19007;DHT22;9636;47.382;8.480;2023-10-08T08:55:08;20.30;92.60
19007;DHT22;9636;47.382;8.480;2023-10-08T08:57:41;20.60;92.90
19007;DHT22;9636;47.382;8.480;2023-10-08T09:00:11;20.60;92.70
19007;DHT22;9636;47.382;8.480;2023-10-08T09:02:40;20.60;92.50
19007;DHT22;9636;47.382;8.480;2023-10-08T09:05:08;20.70;92.80
19007;DHT22;9636;47.382;8.480;2023-10-08T09:07:56;20.80;93.00
19007;DHT22;9636;47.382;8.480;2023-10-08T09:10:25;20.70;93.00
19007;DHT22;9636;47.382;8.480;2023-10-08T09:12:55;20.80;92.20
19007;DHT22;9636;47.382;8.480;2023-10-08T09:15:25;20.90;91.90
19007;DHT22;9636;47.382;8.480;2023-10-08T09:17:52;21.00;91.30
19007;DHT22;9636;47.382;8.480;2023-10-08T09:20:20;21.10;92.20
19007;DHT22;9636;47.382;8.480;2023-10-08T09:23:05;21.20;92.30
19007;DHT22;9636;47.382;8.480;2023-10-08T09:25:34;21.40;92.30
19007;DHT22;9636;47.382;8.480;2023-10-08T09:28:02;21.30;92.00
19007;DHT22;9636;47.382;8.480;2023-10-08T09:30:34;21.30;91.90
19007;DHT22;9636;47.382;8.480;2023-10-08T09:33:04;21.40;92.60
19007;DHT22;9636;47.382;8.480;2023-10-08T09:35:31;21.50;92.60
19007;DHT22;9636;47.382;8.480;2023-10-08T09:37:59;21.50;92.50
19007;DHT22;9636;47.382;8.480;2023-10-08T09:40:26;21.70;92.70
19007;DHT22;9636;47.382;8.480;2023-10-08T09:42:55;21.80;92.40
19007;DHT22;9636;47.382;8.480;2023-10-08T09:45:23;21.80;91.80
19007;DHT22;9636;47.382;8.480;2023-10-08T09:47:54;21.90;91.50
19007;DHT22;9636;47.382;8.480;2023-10-08T09:50:27;22.00;91.30
19007;DHT22;9636;47.382;8.480;2023-10-08T09:53:00;22.00;91.20
19007;DHT22;9636;47.382;8.480;2023-10-08T09:55:29;22.10;91.50
19007;DHT22;9636;47.382;8.480;2023-10-08T09:57:56;22.20;91.30
19007;DHT22;9636;47.382;8.480;2023-10-08T10:00:27;22.30;91.30
19007;DHT22;9636;47.382;8.480;2023-10-08T10:02:59;22.40;91.00
19007;DHT22;9636;47.382;8.480;2023-10-08T10:05:29;22.60;91.00
19007;DHT22;9636;47.382;8.480;2023-10-08T10:07:56;22.60;90.90
19007;DHT22;9636;47.382;8.480;2023-10-08T10:10:26;22.70;90.70
19007;DHT22;9636;47.382;8.480;2023-10-08T10:12:57;22.70;91.20
19007;DHT22;9636;47.382;8.480;2023-10-08T10:15:27;22.90;91.60
19007;DHT22;9636;47.382;8.480;2023-10-08T10:17:58;23.00;90.80
19007;DHT22;9636;47.382;8.480;2023-10-08T10:20:25;23.10;91.10
19007;DHT22;9636;47.382;8.480;2023-10-08T10:22:53;23.10;90.30
19007;DHT22;9636;47.382;8.480;2023-10-08T10:25:34;23.20;90.60
19007;DHT22;9636;47.382;8.480;2023-10-08T10:30:50;23.40;90.50
19007;DHT22;9636;47.382;8.480;2023-10-08T10:33:18;23.50;89.80
19007;DHT22;9636;47.382;8.480;2023-10-08T10:35:50;23.60;90.20
19007;DHT22;9636;47.382;8.480;2023-10-08T10:38:19;23.70;90.90
19007;DHT22;9636;47.382;8.480;2023-10-08T10:40:48;23.80;91.60
19007;DHT22;9636;47.382;8.480;2023-10-08T10:43:23;23.90;91.10
19007;DHT22;9636;47.382;8.480;2023-10-08T10:46:02;24.00;91.00
19007;DHT22;9636;47.382;8.480;2023-10-08T10:49:00;24.00;90.00
19007;DHT22;9636;47.382;8.480;2023-10-08T10:51:33;24.10;89.20
19007;DHT22;9636;47.382;8.480;2023-10-08T10:53:59;24.10;90.40
19007;DHT22;9636;47.382;8.480;2023-10-08T10:56:34;24.20;90.50
19007;DHT22;9636;47.382;8.480;2023-10-08T10:59:06;24.30;90.70
19007;DHT22;9636;47.382;8.480;2023-10-08T11:01:41;24.40;90.00
19007;DHT22;9636;47.382;8.480;2023-10-08T11:04:13;24.50;90.00
19007;DHT22;9636;47.382;8.480;2023-10-08T11:06:46;24.60;89.20
19007;DHT22;9636;47.382;8.480;2023-10-08T11:09:13;24.70;89.20
19007;DHT22;9636;47.382;8.480;2023-10-08T11:11:42;24.70;88.90
19007;DHT22;9636;47.382;8.480;2023-10-08T11:14:12;24.80;89.30
19007;DHT22;9636;47.382;8.480;2023-10-08T11:16:44;24.80;86.60
19007;DHT22;9636;47.382;8.480;2023-10-08T11:19:13;24.90;86.50
19007;DHT22;9636;47.382;8.480;2023-10-08T11:21:50;24.90;88.60
19007;DHT22;9636;47.382;8.480;2023-10-08T11:24:28;25.00;87.40
19007;DHT22;9636;47.382;8.480;2023-10-08T11:26:59;25.00;87.00
19007;DHT22;9636;47.382;8.480;2023-10-08T11:29:41;25.00;86.40
19007;DHT22;9636;47.382;8.480;2023-10-08T11:32:09;25.10;86.60
19007;DHT22;9636;47.382;8.480;2023-10-08T11:34:39;25.10;86.20
19007;DHT22;9636;47.382;8.480;2023-10-08T11:37:06;25.20;87.50
19007;DHT22;9636;47.382;8.480;2023-10-08T11:39:45;25.30;87.40
19007;DHT22;9636;47.382;8.480;2023-10-08T11:42:12;25.40;86.40
19007;DHT22;9636;47.382;8.480;2023-10-08T11:45:06;25.40;86.10
19007;DHT22;9636;47.382;8.480;2023-10-08T11:47:44;25.50;85.90
19007;DHT22;9636;47.382;8.480;2023-10-08T11:50:15;25.60;85.50
19007;DHT22;9636;47.382;8.480;2023-10-08T11:52:45;25.70;85.90
19007;DHT22;9636;47.382;8.480;2023-10-08T11:55:12;25.70;86.60
19007;DHT22;9636;47.382;8.480;2023-10-08T11:57:45;25.70;85.80
19007;DHT22;9636;47.382;8.480;2023-10-08T12:00:15;25.70;86.00
19007;DHT22;9636;47.382;8.480;2023-10-08T12:02:45;25.70;85.70
19007;DHT22;9636;47.382;8.480;2023-10-08T12:05:12;25.90;86.00
19007;DHT22;9636;47.382;8.480;2023-10-08T12:07:46;25.90;86.00
19007;DHT22;9636;47.382;8.480;2023-10-08T12:10:13;26.00;86.00
19007;DHT22;9636;47.382;8.480;2023-10-08T12:12:42;26.00;86.40
19007;DHT22;9636;47.382;8.480;2023-10-08T12:15:11;26.10;86.60
19007;DHT22;9636;47.382;8.480;2023-10-08T12:17:46;26.10;86.50
19007;DHT22;9636;47.382;8.480;2023-10-08T12:20:33;26.20;85.20
19007;DHT22;9636;47.382;8.480;2023-10-08T12:23:01;26.20;85.00
19007;DHT22;9636;47.382;8.480;2023-10-08T12:25:29;26.30;85.60
19007;DHT22;9636;47.382;8.480;2023-10-08T12:27:58;26.30;86.40
19007;DHT22;9636;47.382;8.480;2023-10-08T12:30:28;26.30;82.00
19007;DHT22;9636;47.382;8.480;2023-10-08T12:32:57;26.40;82.80
19007;DHT22;9636;47.382;8.480;2023-10-08T12:35:24;26.40;84.00
19007;DHT22;9636;47.382;8.480;2023-10-08T12:37:51;26.40;84.40
19007;DHT22;9636;47.382;8.480;2023-10-08T12:40:20;26.50;82.60
19007;DHT22;9636;47.382;8.480;2023-10-08T12:42:52;26.50;85.00
19007;DHT22;9636;47.382;8.480;2023-10-08T12:45:20;26.60;84.60
19007;DHT22;9636;47.382;8.480;2023-10-08T12:47:48;26.60;85.10
19007;DHT22;9636;47.382;8.480;2023-10-08T12:50:16;26.60;85.10
19007;DHT22;9636;47.382;8.480;2023-10-08T12:52:43;26.70;82.40
19007;DHT22;9636;47.382;8.480;2023-10-08T12:55:20;26.70;82.20
19007;DHT22;9636;47.382;8.480;2023-10-08T12:57:50;26.70;84.30
19007;DHT22;9636;47.382;8.480;2023-10-08T13:00:22;26.80;84.00
19007;DHT22;9636;47.382;8.480;2023-10-08T13:02:50;26.80;84.10
19007;DHT22;9636;47.382;8.480;2023-10-08T13:05:21;26.90;84.20
19007;DHT22;9636;47.382;8.480;2023-10-08T13:07:54;26.90;83.00
19007;DHT22;9636;47.382;8.480;2023-10-08T13:10:23;27.00;83.60
19007;DHT22;9636;47.382;8.480;2023-10-08T13:12:49;27.00;84.00
19007;DHT22;9636;47.382;8.480;2023-10-08T13:15:16;27.10;83.90
19007;DHT22;9636;47.382;8.480;2023-10-08T13:17:43;27.10;81.70
19007;DHT22;9636;47.382;8.480;2023-10-08T13:20:12;27.20;82.30
19007;DHT22;9636;47.382;8.480;2023-10-08T13:22:38;27.20;83.70
19007;DHT22;9636;47.382;8.480;2023-10-08T13:25:06;27.20;81.70
19007;DHT22;9636;47.382;8.480;2023-10-08T13:27:35;27.20;80.90
19007;DHT22;9636;47.382;8.480;2023-10-08T13:30:06;27.20;82.70
19007;DHT22;9636;47.382;8.480;2023-10-08T13:32:34;27.20;83.20
19007;DHT22;9636;47.382;8.480;2023-10-08T13:35:02;27.20;82.00
19007;DHT22;9636;47.382;8.480;2023-10-08T13:37:32;27.30;82.10
19007;DHT22;9636;47.382;8.480;2023-10-08T13:39:58;27.30;82.80
19007;DHT22;9636;47.382;8.480;2023-10-08T13:42:26;27.40;80.50
19007;DHT22;9636;47.382;8.480;2023-10-08T13:44:54;27.40;82.80
19007;DHT22;9636;47.382;8.480;2023-10-08T13:47:23;27.40;82.80
19007;DHT22;9636;47.382;8.480;2023-10-08T13:49:51;27.40;82.90
19007;DHT22;9636;47.382;8.480;2023-10-08T13:52:18;27.40;82.50
19007;DHT22;9636;47.382;8.480;2023-10-08T13:54:46;27.40;81.90
19007;DHT22;9636;47.382;8.480;2023-10-08T13:57:18;27.50;82.10
19007;DHT22;9636;47.382;8.480;2023-10-08T13:59:45;27.50;82.90
19007;DHT22;9636;47.382;8.480;2023-10-08T14:02:15;27.40;83.00
19007;DHT22;9636;47.382;8.480;2023-10-08T14:04:45;27.40;83.30
19007;DHT22;9636;47.382;8.480;2023-10-08T14:07:15;27.40;82.60
19007;DHT22;9636;47.382;8.480;2023-10-08T14:09:44;27.30;82.90
19007;DHT22;9636;47.382;8.480;2023-10-08T14:12:12;27.30;83.70
19007;DHT22;9636;47.382;8.480;2023-10-08T14:14:40;27.30;83.90
19007;DHT22;9636;47.382;8.480;2023-10-08T14:17:09;27.30;84.10
19007;DHT22;9636;47.382;8.480;2023-10-08T14:19:42;27.30;84.30
19007;DHT22;9636;47.382;8.480;2023-10-08T14:22:25;27.20;84.70
19007;DHT22;9636;47.382;8.480;2023-10-08T14:24:52;27.20;85.70
19007;DHT22;9636;47.382;8.480;2023-10-08T14:27:24;27.20;84.20
19007;DHT22;9636;47.382;8.480;2023-10-08T14:29:57;27.20;85.20
19007;DHT22;9636;47.382;8.480;2023-10-08T14:32:26;27.20;86.70
19007;DHT22;9636;47.382;8.480;2023-10-08T14:34:55;27.20;86.10
19007;DHT22;9636;47.382;8.480;2023-10-08T14:37:39;27.20;85.30
19007;DHT22;9636;47.382;8.480;2023-10-08T14:40:23;27.20;86.80
19007;DHT22;9636;47.382;8.480;2023-10-08T14:43:08;27.10;86.50
19007;DHT22;9636;47.382;8.480;2023-10-08T14:45:37;27.10;87.50
19007;DHT22;9636;47.382;8.480;2023-10-08T14:48:06;27.00;87.00
19007;DHT22;9636;47.382;8.480;2023-10-08T14:50:38;27.00;88.40
19007;DHT22;9636;47.382;8.480;2023-10-08T14:53:04;27.00;89.40
19007;DHT22;9636;47.382;8.480;2023-10-08T14:55:31;26.90;89.20
19007;DHT22;9636;47.382;8.480;2023-10-08T14:58:00;26.90;90.10
19007;DHT22;9636;47.382;8.480;2023-10-08T15:00:33;26.90;90.20
19007;DHT22;9636;47.382;8.480;2023-10-08T15:03:01;26.90;89.60
19007;DHT22;9636;47.382;8.480;2023-10-08T15:08:38;26.70;92.30
19007;DHT22;9636;47.382;8.480;2023-10-08T15:11:05;26.50;93.00
19007;DHT22;9636;47.382;8.480;2023-10-08T15:13:36;26.40;92.70
19007;DHT22;9636;47.382;8.480;2023-10-08T15:16:04;26.30;92.80
19007;DHT22;9636;47.382;8.480;2023-10-08T15:18:31;26.10;92.50
19007;DHT22;9636;47.382;8.480;2023-10-08T15:21:07;26.10;92.80
19007;DHT22;9636;47.382;8.480;2023-10-08T15:23:34;26.00;92.80
19007;DHT22;9636;47.382;8.480;2023-10-08T15:26:04;25.90;93.20
19007;DHT22;9636;47.382;8.480;2023-10-08T15:28:31;25.80;93.30
19007;DHT22;9636;47.382;8.480;2023-10-08T15:30:58;25.80;93.30
19007;DHT22;9636;47.382;8.480;2023-10-08T15:33:25;25.70;93.30
19007;DHT22;9636;47.382;8.480;2023-10-08T15:35:52;25.70;93.30
19007;DHT22;9636;47.382;8.480;2023-10-08T15:38:19;25.60;93.50
19007;DHT22;9636;47.382;8.480;2023-10-08T15:40:46;25.60;93.60
19007;DHT22;9636;47.382;8.480;2023-10-08T15:43:16;25.50;93.60
19007;DHT22;9636;47.382;8.480;2023-10-08T15:45:43;25.30;93.60
19007;DHT22;9636;47.382;8.480;2023-10-08T15:48:10;25.20;93.60
19007;DHT22;9636;47.382;8.480;2023-10-08T15:50:37;25.10;93.80
19007;DHT22;9636;47.382;8.480;2023-10-08T15:53:05;24.90;94.00
19007;DHT22;9636;47.382;8.480;2023-10-08T15:55:32;24.90;94.30
19007;DHT22;9636;47.382;8.480;2023-10-08T15:57:59;24.90;94.40
19007;DHT22;9636;47.382;8.480;2023-10-08T16:00:27;24.80;94.40
19007;DHT22;9636;47.382;8.480;2023-10-08T16:02:56;25.10;93.80
19007;DHT22;9636;47.382;8.480;2023-10-08T16:05:23;25.40;93.50
19007;DHT22;9636;47.382;8.480;2023-10-08T16:07:50;25.60;93.30
19007;DHT22;9636;47.382;8.480;2023-10-08T16:10:17;25.70;93.60
19007;DHT22;9636;47.382;8.480;2023-10-08T16:12:45;25.70;94.10
19007;DHT22;9636;47.382;8.480;2023-10-08T16:15:12;25.80;94.00